Time;durP1;ratioP1;P1;durP2;ratioP2;P2;SDS_P1;SDS_P2;PMS_P1;PMS_P2;Temp;Humidity;BMP_temperature;BMP_pressure;BME280_temperature;BME280_humidity;BME280_pressure;Samples;Min_cycle;Max_cycle;Signal;HPM_P1;HPM_P2
2022/05/17 00:00:59;;;;;;;5.95;2.80;;;16.50;99.90;;;;;;6220263;23;20020;-90
2022/05/17 00:03:25;;;;;;;7.18;2.90;;;16.50;99.90;;;;;;6219806;23;20012;-93
2022/05/17 00:05:50;;;;;;;9.55;2.90;;;16.40;99.90;;;;;;6219760;23;20024;-89
2022/05/17 00:08:17;;;;;;;10.60;2.95;;;16.40;99.90;;;;;;6194608;23;20012;-90
2022/05/17 00:10:43;;;;;;;;;;;16.40;99.90;;;;;;6220304;23;20020;-91
2022/05/17 00:13:09;;;;;;;6.25;2.75;;;16.40;99.90;;;;;;6194335;23;20316;-90
2022/05/17 00:15:38;;;;;;;8.43;2.95;;;16.30;99.90;;;;;;6194598;23;20020;-91
2022/05/17 00:18:04;;;;;;;7.22;3.03;;;16.30;99.90;;;;;;6219596;23;20373;-91
2022/05/17 00:20:46;;;;;;;9.85;2.88;;;16.30;99.90;;;;;;6219770;23;20016;-89
2022/05/17 00:23:15;;;;;;;10.30;3.10;;;16.30;99.90;;;;;;6219379;23;20058;-88
2022/05/17 00:25:42;;;;;;;8.23;2.92;;;16.30;99.90;;;;;;6194044;23;20027;-89
2022/05/17 00:28:08;;;;;;;7.25;2.72;;;16.30;99.90;;;;;;6219326;23;20016;-90
2022/05/17 00:30:34;;;;;;;6.40;3.00;;;16.20;99.90;;;;;;6246292;23;20023;-91
2022/05/17 00:33:00;;;;;;;7.82;2.55;;;16.20;99.90;;;;;;6194033;23;20099;-90
2022/05/17 00:36:22;;;;;;;5.68;2.28;;;16.20;99.90;;;;;;6194685;23;20053;-92
2022/05/17 00:39:09;;;;;;;5.90;2.22;;;16.20;99.90;;;;;;6219644;23;20019;-95
2022/05/17 00:53:50;;;;;;;5.13;2.17;;;16.00;99.90;;;;;;6185926;23;20025;-90
2022/05/17 00:56:21;;;;;;;5.88;2.63;;;16.00;99.90;;;;;;6134818;23;20108;-91
2022/05/17 00:58:52;;;;;;;6.53;2.30;;;15.90;99.90;;;;;;6135389;23;20024;-91
2022/05/17 01:01:21;;;;;;;5.65;1.85;;;15.90;99.90;;;;;;6135053;23;20013;-91
2022/05/17 01:22:29;;;;;;;6.20;2.38;;;15.80;99.90;;;;;;6214853;23;20032;-90
2022/05/17 01:25:03;;;;;;;6.72;2.13;;;15.80;99.90;;;;;;6164158;23;20025;-90
2022/05/17 01:27:43;;;;;;;6.32;2.00;;;15.80;99.90;;;;;;6164695;23;20386;-92
2022/05/17 01:30:32;;;;;;;6.45;2.15;;;15.70;99.90;;;;;;6164384;23;20048;-91
2022/05/17 01:32:58;;;;;;;7.00;2.50;;;15.70;99.90;;;;;;6214594;23;20100;-91
2022/05/17 01:35:42;;;;;;;7.00;2.22;;;15.70;99.90;;;;;;6164365;23;20044;-89
2022/05/17 02:19:20;;;;;;;7.05;2.47;;;15.50;99.90;;;;;;6001563;23;20051;-93
2022/05/17 02:21:49;;;;;;;7.32;2.75;;;15.40;99.90;;;;;;6005638;23;20021;-90
2022/05/17 02:24:15;;;;;;;6.47;2.80;;;15.40;99.90;;;;;;6136036;23;20442;-89
2022/05/17 02:26:42;;;;;;;5.97;2.90;;;15.40;99.90;;;;;;6160422;23;20017;-89
2022/05/17 02:29:55;;;;;;;8.73;2.38;;;15.40;99.90;;;;;;6136275;23;20455;-92
2022/05/17 02:36:08;;;;;;;5.15;2.25;;;15.40;99.90;;;;;;6143281;23;20025;-91
2022/05/17 02:38:33;;;;;;;;;;;15.40;99.90;;;;;;6136807;23;20024;-93
2022/05/17 02:41:09;;;;;;;7.50;2.70;;;15.40;99.90;;;;;;6136053;23;19916;-91
2022/05/17 02:43:41;;;;;;;6.97;2.58;;;15.40;99.90;;;;;;6136393;23;20053;-92
2022/05/17 02:46:13;;;;;;;6.93;2.85;;;15.30;99.90;;;;;;6136175;23;20021;-92
2022/05/17 02:49:17;;;;;;;6.80;2.58;;;15.30;99.90;;;;;;6135642;23;20013;-93
2022/05/17 02:52:25;;;;;;;8.57;2.75;;;15.30;99.90;;;;;;6135782;23;20080;-92
2022/05/17 03:00:14;;;;;;;7.43;3.10;;;15.20;99.90;;;;;;6186959;23;20029;-90
2022/05/17 03:02:40;;;;;;;9.90;2.97;;;15.30;99.90;;;;;;6136346;23;20018;-92
2022/05/17 03:18:41;;;;;;;7.30;2.55;;;15.20;99.90;;;;;;6215853;23;20028;-92
2022/05/17 03:21:07;;;;;;;8.68;2.33;;;15.20;99.90;;;;;;6165793;23;20031;-90
2022/05/17 03:23:33;;;;;;;6.53;2.80;;;15.10;99.90;;;;;;6165509;23;20016;-90
2022/05/17 03:25:59;;;;;;;5.88;2.42;;;15.20;99.90;;;;;;6165636;23;20016;-88
2022/05/17 03:28:25;;;;;;;5.97;1.97;;;15.10;99.90;;;;;;6190026;23;20055;-89
2022/05/17 03:30:50;;;;;;;6.33;2.23;;;15.10;99.90;;;;;;6190127;23;20251;-90
2022/05/17 03:33:16;;;;;;;5.85;2.28;;;15.10;99.90;;;;;;6190554;23;20309;-91
2022/05/17 03:35:42;;;;;;;6.20;2.63;;;15.10;99.90;;;;;;6165227;23;20323;-90
2022/05/17 03:38:07;;;;;;;7.87;2.60;;;15.00;99.90;;;;;;6165315;23;20090;-90
2022/05/17 03:40:33;;;;;;;6.75;2.63;;;15.00;99.90;;;;;;6165393;23;20322;-91
2022/05/17 03:42:59;;;;;;;5.55;2.72;;;15.00;99.90;;;;;;6165307;23;20017;-91
2022/05/17 03:45:25;;;;;;;6.50;2.40;;;15.00;99.90;;;;;;6165282;23;20017;-93
2022/05/17 03:47:51;;;;;;;7.05;2.25;;;15.00;99.90;;;;;;6165213;23;20009;-90
2022/05/17 03:50:17;;;;;;;4.95;2.20;;;15.00;99.90;;;;;;6190172;23;20083;-91
2022/05/17 03:52:44;;;;;;;5.22;2.05;;;14.90;99.90;;;;;;6165554;23;20020;-90
2022/05/17 03:55:10;;;;;;;7.60;2.38;;;15.00;99.90;;;;;;6189703;23;20016;-90
2022/05/17 03:57:36;;;;;;;6.35;2.13;;;14.90;99.90;;;;;;6190006;23;20096;-90
2022/05/17 04:00:06;;;;;;;7.85;2.35;;;15.00;99.90;;;;;;6165237;23;20055;-92
2022/05/17 04:02:34;;;;;;;8.10;2.38;;;14.90;99.90;;;;;;6165069;23;20021;-92
2022/05/17 04:05:00;;;;;;;7.28;2.55;;;14.90;99.90;;;;;;6189821;23;20095;-91
2022/05/17 04:07:26;;;;;;;5.78;2.30;;;14.90;99.90;;;;;;6165165;23;20024;-91
2022/05/17 04:09:53;;;;;;;5.93;2.20;;;14.90;99.90;;;;;;6164918;23;20013;-91
2022/05/17 04:12:19;;;;;;;5.97;2.22;;;14.90;99.90;;;;;;6165261;23;20098;-93
2022/05/17 04:14:45;;;;;;;5.60;2.05;;;15.00;99.90;;;;;;6164963;23;20017;-91
2022/05/17 04:17:10;;;;;;;5.68;2.10;;;14.90;99.90;;;;;;6165088;23;20013;-92
2022/05/17 04:19:40;;;;;;;5.10;2.10;;;14.90;99.90;;;;;;6176898;23;20020;-92
2022/05/17 04:22:11;;;;;;;5.63;1.77;;;14.90;99.90;;;;;;6189800;23;20251;-93
2022/05/17 04:24:42;;;;;;;6.07;1.98;;;15.00;99.90;;;;;;6189519;23;20328;-93
2022/05/17 04:27:09;;;;;;;7.07;2.05;;;15.00;99.90;;;;;;6189677;23;20053;-91
2022/05/17 04:29:37;;;;;;;6.25;2.20;;;15.00;99.90;;;;;;6189491;23;20473;-92
2022/05/17 04:32:04;;;;;;;7.05;2.33;;;15.10;99.90;;;;;;6189754;23;20024;-91
2022/05/17 04:34:42;;;;;;;;;;;;;;;;;;;;;
2022/05/17 04:37:36;;;;;;;4.72;1.77;;;15.10;99.90;;;;;;6214684;23;20020;-92
2022/05/17 04:40:13;;;;;;;6.88;2.45;;;15.10;99.90;;;;;;6131884;23;20020;-91
2022/05/17 04:42:41;;;;;;;5.40;2.13;;;15.10;99.90;;;;;;6189514;23;20013;-92
2022/05/17 05:01:21;;;;;;;5.57;1.92;;;15.60;99.90;;;;;;6233185;23;20020;-91
2022/05/17 05:03:50;;;;;;;6.28;1.95;;;15.70;99.90;;;;;;6153582;23;20026;-90
2022/05/17 05:06:55;;;;;;;5.35;1.55;;;15.90;99.90;;;;;;6153372;23;20017;-94
2022/05/17 05:09:20;;;;;;;5.45;1.95;;;16.00;99.90;;;;;;6153342;23;20041;-90
2022/05/17 05:12:03;;;;;;;3.88;1.80;;;16.10;99.90;;;;;;6153277;23;20017;-88
2022/05/17 05:14:29;;;;;;;5.05;1.77;;;16.20;99.90;;;;;;6153490;23;20494;-89
2022/05/17 05:19:39;;;;;;;4.68;1.73;;;16.40;99.90;;;;;;6215446;23;20025;-89
2022/05/17 05:22:08;;;;;;;4.18;1.60;;;16.50;99.90;;;;;;6162224;23;20024;-93
2022/05/17 05:24:36;;;;;;;5.97;1.70;;;16.70;99.90;;;;;;6160649;23;20020;-93
2022/05/17 05:27:07;;;;;;;4.45;1.55;;;16.90;99.90;;;;;;6162013;23;20013;-92
2022/05/17 05:29:36;;;;;;;9.25;2.03;;;16.90;99.90;;;;;;6164745;23;20024;-91
2022/05/17 05:32:08;;;;;;;5.28;2.00;;;16.80;99.90;;;;;;6165053;23;20016;-92
2022/05/17 05:34:34;;;;;;;5.07;1.33;;;16.80;99.90;;;;;;6164518;23;20454;-92
2022/05/17 05:37:21;;;;;;;4.05;1.58;;;16.70;99.90;;;;;;6164515;23;20028;-94
2022/05/17 05:43:19;;;;;;;6.20;2.38;;;16.60;99.90;;;;;;6213909;22;20276;-89
2022/05/17 05:45:50;;;;;;;5.57;1.70;;;16.50;99.90;;;;;;6164774;23;20031;-91
2022/05/17 05:48:15;;;;;;;6.22;1.70;;;16.50;99.90;;;;;;6164919;23;20146;-92
2022/05/17 05:51:03;;;;;;;5.78;1.92;;;16.50;99.90;;;;;;6165188;23;20020;-92
2022/05/17 05:53:29;;;;;;;;;;;16.60;99.90;;;;;;6189898;23;20024;-88
2022/05/17 05:56:03;;;;;;;5.35;1.65;;;16.70;99.90;;;;;;6164300;23;19912;-90
2022/05/17 05:58:34;;;;;;;6.05;1.77;;;16.80;99.90;;;;;;6163957;23;20023;-89
2022/05/17 06:01:00;;;;;;;6.10;1.88;;;16.90;99.90;;;;;;6189571;23;20044;-90
2022/05/17 06:04:10;;;;;;;4.75;2.03;;;17.00;99.90;;;;;;6189460;23;20013;-91
2022/05/17 06:07:25;;;;;;;5.60;1.50;;;17.10;99.90;;;;;;6067760;23;20022;-92
2022/05/17 06:10:05;;;;;;;4.47;1.63;;;17.10;99.90;;;;;;6041979;23;20345;-88
2022/05/17 06:12:38;;;;;;;5.22;1.75;;;17.20;99.90;;;;;;6040873;23;20404;-87
2022/05/17 06:15:05;;;;;;;3.95;1.75;;;17.20;99.90;;;;;;6065039;23;20046;-88
2022/05/17 06:17:31;;;;;;;5.18;1.52;;;17.30;99.90;;;;;;6063889;23;20026;-89
2022/05/17 06:19:57;;;;;;;3.25;1.35;;;17.30;99.90;;;;;;6040920;23;20022;-88
2022/05/17 06:22:25;;;;;;;5.32;1.60;;;17.40;99.90;;;;;;6065281;23;20019;-88
2022/05/17 06:24:51;;;;;;;5.22;1.80;;;17.50;99.90;;;;;;6067257;23;20037;-88
2022/05/17 06:27:16;;;;;;;6.35;1.90;;;17.70;99.90;;;;;;6067187;23;20047;-89
2022/05/17 06:29:42;;;;;;;5.85;1.90;;;17.80;99.90;;;;;;6066822;23;20102;-88
2022/05/17 06:32:14;;;;;;;6.43;1.67;;;18.00;99.90;;;;;;6042890;23;20084;-87
2022/05/17 06:34:41;;;;;;;6.38;2.20;;;18.20;99.90;;;;;;6066887;23;20058;-88
2022/05/17 06:37:08;;;;;;;6.72;2.20;;;18.30;99.90;;;;;;6122254;23;20082;-89
2022/05/17 06:39:34;;;;;;;;;;;18.30;99.90;;;;;;6190452;23;20488;-88
2022/05/17 06:42:00;;;;;;;7.22;1.67;;;18.30;99.90;;;;;;6190290;23;19922;-88
2022/05/17 06:44:26;;;;;;;;;;;18.40;99.90;;;;;;6190465;23;20012;-85
2022/05/17 06:46:54;;;;;;;6.40;1.85;;;18.70;99.90;;;;;;6190250;23;19955;-86
2022/05/17 06:49:22;;;;;;;6.75;2.10;;;19.20;99.90;;;;;;6189963;23;20056;-86
2022/05/17 06:51:49;;;;;;;7.25;1.90;;;19.60;99.90;;;;;;6190078;23;20024;-86
2022/05/17 06:54:15;;;;;;;4.80;1.70;;;20.10;99.90;;;;;;6190109;23;20449;-86
2022/05/17 06:56:41;;;;;;;6.75;1.70;;;20.50;99.90;;;;;;6190139;23;20012;-87
2022/05/17 06:59:07;;;;;;;6.28;1.60;;;20.80;99.90;;;;;;6190004;23;20438;-86
2022/05/17 07:01:33;;;;;;;5.53;1.90;;;20.90;99.90;;;;;;6189999;23;20021;-87
2022/05/17 07:03:59;;;;;;;6.80;1.90;;;20.90;99.90;;;;;;6190622;23;20438;-85
2022/05/17 07:06:26;;;;;;;4.50;1.65;;;20.80;99.90;;;;;;6190104;23;20043;-86
2022/05/17 07:08:51;;;;;;;4.22;1.70;;;20.70;99.90;;;;;;6190144;23;20048;-85
2022/05/17 07:14:02;;;;;;;5.18;2.10;;;21.10;99.90;;;;;;6190023;23;20351;-86
2022/05/17 07:16:28;;;;;;;3.70;1.83;;;21.40;99.90;;;;;;6190184;23;20099;-88
2022/05/17 07:18:54;;;;;;;3.92;1.60;;;21.50;99.90;;;;;;6189778;23;20399;-85
2022/05/17 07:21:20;;;;;;;5.60;1.92;;;21.30;99.90;;;;;;6216569;23;20048;-87
2022/05/17 07:23:46;;;;;;;4.82;1.63;;;21.00;99.90;;;;;;6216610;23;20055;-86
2022/05/17 07:26:13;;;;;;;7.07;2.20;;;20.80;99.90;;;;;;6216623;23;20052;-89
2022/05/17 07:28:45;;;;;;;3.30;1.35;;;20.60;99.90;;;;;;6216408;23;20048;-89
2022/05/17 07:31:12;;;;;;;5.25;2.00;;;20.40;99.90;;;;;;6190017;23;20099;-87
2022/05/17 07:33:38;;;;;;;5.18;1.85;;;20.20;99.90;;;;;;6165131;23;20012;-90
2022/05/17 07:36:04;;;;;;;;;;;20.00;99.90;;;;;;6189883;23;20017;-88
2022/05/17 07:38:31;;;;;;;3.22;1.60;;;19.90;99.90;;;;;;6190109;23;19916;-89
2022/05/17 07:40:56;;;;;;;5.65;1.73;;;19.70;99.90;;;;;;6189981;23;20028;-89
2022/05/17 07:43:22;;;;;;;5.25;1.58;;;19.60;99.90;;;;;;6216065;23;20021;-89
2022/05/17 07:45:52;;;;;;;4.63;1.70;;;19.50;99.90;;;;;;6164824;23;20361;-89
2022/05/17 07:48:19;;;;;;;6.25;1.80;;;19.50;99.90;;;;;;6164811;23;20024;-89
2022/05/17 07:50:46;;;;;;;3.30;1.55;;;19.40;99.90;;;;;;6189559;23;20016;-89
2022/05/17 07:53:14;;;;;;;5.53;1.70;;;19.40;99.90;;;;;;6189520;23;20017;-89
2022/05/17 07:55:42;;;;;;;4.72;1.40;;;19.40;99.90;;;;;;6216147;23;20017;-87
2022/05/17 07:58:09;;;;;;;3.72;1.40;;;19.40;99.90;;;;;;6189418;23;20458;-87
2022/05/17 08:00:35;;;;;;;5.20;1.60;;;19.40;99.90;;;;;;6216114;23;20095;-88
2022/05/17 08:03:02;;;;;;;4.72;1.92;;;19.40;99.90;;;;;;6189170;23;20021;-87
2022/05/17 08:05:28;;;;;;;5.57;2.35;;;19.40;99.90;;;;;;6189801;23;20021;-87
2022/05/17 08:07:54;;;;;;;;;;;19.40;99.90;;;;;;6189824;23;20020;-87
2022/05/17 08:10:20;;;;;;;6.68;2.00;;;19.30;99.90;;;;;;6189278;23;19916;-87
2022/05/17 08:12:46;;;;;;;5.25;2.00;;;19.30;99.90;;;;;;6189173;23;20025;-86
2022/05/17 08:15:12;;;;;;;6.47;2.35;;;19.30;99.90;;;;;;6215866;23;20024;-88
2022/05/17 08:17:38;;;;;;;4.15;1.90;;;19.30;99.90;;;;;;6164703;23;20027;-87
2022/05/17 08:20:09;;;;;;;5.60;2.33;;;19.40;99.90;;;;;;6188978;23;20454;-88
2022/05/17 08:22:39;;;;;;;6.93;2.22;;;19.40;99.90;;;;;;6215860;23;20341;-86
2022/05/17 08:27:50;;;;;;;7.32;2.20;;;19.30;99.90;;;;;;6215820;23;20489;-87
2022/05/17 08:30:19;;;;;;;5.45;2.25;;;19.30;99.90;;;;;;6188943;23;20012;-86
2022/05/17 08:36:01;;;;;;;5.90;2.42;;;19.40;99.90;;;;;;6189088;23;20016;-86
2022/05/17 08:38:42;;;;;;;6.13;2.08;;;19.40;99.90;;;;;;6186944;23;20086;-88
2022/05/17 08:41:20;;;;;;;5.03;2.20;;;19.40;99.90;;;;;;6215692;23;20023;-87
2022/05/17 08:44:14;;;;;;;6.55;2.40;;;19.40;99.90;;;;;;6188732;23;20346;-87
2022/05/17 08:47:23;;;;;;;5.50;2.20;;;19.40;99.90;;;;;;6188521;23;20021;-89
2022/05/17 08:50:07;;;;;;;6.40;2.88;;;19.50;99.90;;;;;;6070439;23;20097;-89
2022/05/17 08:52:36;;;;;;;3.55;1.42;;;19.40;99.90;;;;;;6068640;23;20029;-86
2022/05/17 08:55:21;;;;;;;7.75;2.10;;;19.40;99.90;;;;;;6170995;23;20385;-86
2022/05/17 08:57:51;;;;;;;4.43;1.50;;;19.40;99.90;;;;;;6214261;23;20072;-88
2022/05/17 09:00:23;;;;;;;5.20;1.83;;;19.40;99.90;;;;;;6214178;23;20059;-87
2022/05/17 09:03:09;;;;;;;5.20;1.83;;;19.40;99.90;;;;;;6187867;23;20066;-86
2022/05/17 09:05:38;;;;;;;5.93;1.65;;;19.40;99.90;;;;;;6189281;23;20334;-86
2022/05/17 09:08:33;;;;;;;6.15;1.80;;;19.40;99.90;;;;;;6187607;23;20020;-86
2022/05/17 09:11:19;;;;;;;5.53;1.80;;;19.50;99.90;;;;;;6214557;23;20016;-86
2022/05/17 09:14:02;;;;;;;4.32;2.03;;;19.60;99.90;;;;;;6162899;23;20016;-87
2022/05/17 09:16:32;;;;;;;4.50;2.05;;;19.60;99.90;;;;;;6188128;23;20020;-86
2022/05/17 09:18:58;;;;;;;3.50;1.90;;;19.70;99.90;;;;;;6187938;23;20028;-87
2022/05/17 09:21:31;;;;;;;3.72;1.80;;;19.60;99.90;;;;;;6188397;23;20021;-87
2022/05/17 09:23:59;;;;;;;5.45;1.90;;;19.70;99.90;;;;;;6188613;23;20021;-86
2022/05/17 09:26:26;;;;;;;3.78;1.77;;;19.80;99.90;;;;;;6163648;23;20074;-87
2022/05/17 09:28:58;;;;;;;5.30;1.75;;;19.80;99.90;;;;;;6188680;23;20028;-85
2022/05/17 09:31:28;;;;;;;5.78;1.85;;;19.90;99.90;;;;;;6188761;23;20354;-86
2022/05/17 09:33:57;;;;;;;4.57;1.75;;;20.00;99.90;;;;;;6163725;23;20021;-86
2022/05/17 09:36:29;;;;;;;4.65;1.63;;;20.00;99.90;;;;;;6163833;23;20047;-87
2022/05/17 09:38:55;;;;;;;4.15;1.50;;;20.00;99.90;;;;;;6188627;23;20132;-87
2022/05/17 09:41:28;;;;;;;4.63;1.83;;;20.10;99.90;;;;;;6188720;23;20048;-87
2022/05/17 09:44:05;;;;;;;5.72;1.60;;;20.10;99.90;;;;;;6201944;23;20427;-85
2022/05/17 09:46:43;;;;;;;3.90;1.63;;;20.20;99.90;;;;;;6188611;23;20013;-87
2022/05/17 09:54:51;;;;;;;6.28;1.48;;;20.30;99.90;;;;;;6215098;23;20021;-87
2022/05/17 09:57:21;;;;;;;5.25;1.45;;;20.30;99.90;;;;;;6188994;23;20454;-87
2022/05/17 09:59:49;;;;;;;8.80;2.45;;;20.20;99.90;;;;;;6165644;23;20025;-88
2022/05/17 10:02:28;;;;;;;4.32;1.70;;;20.20;99.90;;;;;;6190305;23;20020;-86
2022/05/17 10:04:53;;;;;;;3.90;1.70;;;20.20;99.90;;;;;;6217100;23;20058;-87
2022/05/17 10:07:21;;;;;;;5.20;1.70;;;20.30;99.90;;;;;;6190462;23;20016;-87
2022/05/17 10:09:49;;;;;;;7.28;1.90;;;20.30;99.90;;;;;;6216861;23;20035;-87
2022/05/17 10:12:33;;;;;;;6.78;1.92;;;20.40;99.90;;;;;;6217095;23;20017;-87
2022/05/17 10:15:08;;;;;;;7.13;1.65;;;20.40;99.90;;;;;;6165469;23;20021;-87
2022/05/17 10:17:39;;;;;;;3.95;1.02;;;20.50;99.90;;;;;;6190333;23;20016;-87
2022/05/17 10:20:11;;;;;;;4.13;1.35;;;20.50;99.90;;;;;;6216927;23;20038;-86
2022/05/17 10:22:51;;;;;;;5.30;2.20;;;20.60;99.90;;;;;;6165540;23;20013;-87
2022/05/17 10:25:42;;;;;;;5.82;1.40;;;20.70;99.90;;;;;;6190456;23;20079;-87
2022/05/17 10:28:22;;;;;;;2.85;1.02;;;20.80;99.90;;;;;;6190476;23;20020;-88
2022/05/17 10:31:11;;;;;;;4.13;1.40;;;21.00;99.90;;;;;;6164118;23;20451;-87
2022/05/17 10:33:49;;;;;;;3.30;0.98;;;21.10;99.90;;;;;;6215995;23;20016;-88
2022/05/17 10:36:25;;;;;;;3.20;1.20;;;21.20;99.90;;;;;;6215813;23;20017;-87
2022/05/17 10:39:05;;;;;;;3.65;1.48;;;21.40;99.90;;;;;;6189293;23;20020;-87
2022/05/17 10:41:32;;;;;;;2.95;1.35;;;21.50;99.90;;;;;;6216828;23;20029;-87
2022/05/17 10:43:58;;;;;;;3.65;1.40;;;21.60;99.90;;;;;;6189792;23;20020;-86
2022/05/17 10:46:29;;;;;;;4.70;1.58;;;21.70;99.90;;;;;;6216724;23;20020;-87
2022/05/17 10:48:58;;;;;;;2.45;0.93;;;21.80;99.90;;;;;;6216562;23;20013;-86
2022/05/17 10:51:37;;;;;;;3.03;1.05;;;22.00;99.90;;;;;;6165238;23;20043;-87
2022/05/17 10:54:19;;;;;;;2.33;0.95;;;22.10;99.90;;;;;;6216785;23;20012;-87
2022/05/17 10:57:04;;;;;;;2.88;0.98;;;22.30;99.90;;;;;;6165263;23;20023;-89
2022/05/17 10:59:37;;;;;;;3.25;0.82;;;22.10;99.90;;;;;;6216737;23;20020;-87
2022/05/17 11:02:31;;;;;;;5.63;1.10;;;22.00;99.90;;;;;;6165009;23;20023;-87
2022/05/17 11:05:12;;;;;;;4.38;1.25;;;21.90;99.90;;;;;;6189901;23;20021;-86
2022/05/17 11:08:04;;;;;;;5.03;1.35;;;22.00;99.90;;;;;;6189816;23;20104;-87
2022/05/17 11:10:48;;;;;;;4.63;1.13;;;22.20;99.90;;;;;;6216251;23;20075;-87
2022/05/17 11:13:44;;;;;;;1.80;0.80;;;22.40;99.90;;;;;;6189708;23;20099;-88
2022/05/17 11:16:30;;;;;;;2.83;1.00;;;22.60;99.90;;;;;;6189971;23;20016;-87
2022/05/17 11:19:06;;;;;;;2.75;1.08;;;22.80;99.90;;;;;;6164732;23;20059;-87
2022/05/17 11:21:50;;;;;;;3.63;0.82;;;23.00;99.90;;;;;;6216347;23;20509;-88
2022/05/17 11:24:35;;;;;;;1.77;0.70;;;23.10;99.90;;;;;;6164924;23;20021;-87
2022/05/17 11:27:46;;;;;;;2.42;1.00;;;23.30;99.20;;;;;;6130083;23;20091;-88
2022/05/17 11:30:20;;;;;;;3.13;1.10;;;23.40;98.40;;;;;;6216286;23;20074;-88
2022/05/17 11:33:13;;;;;;;3.80;0.80;;;23.50;99.10;;;;;;6216387;23;20024;-87
2022/05/17 11:35:51;;;;;;;5.63;1.17;;;23.60;98.60;;;;;;6189656;23;20023;-87
2022/05/17 11:38:31;;;;;;;2.58;0.63;;;23.70;98.40;;;;;;6216096;23;20320;-88
2022/05/17 11:40:58;;;;;;;2.13;0.40;;;23.80;98.00;;;;;;6189756;23;20023;-88
2022/05/17 11:44:02;;;;;;;2.92;0.50;;;23.70;97.20;;;;;;6189432;23;20016;-87
2022/05/17 11:46:28;;;;;;;2.47;0.40;;;23.70;93.70;;;;;;6070840;23;20025;-87
2022/05/17 11:48:55;;;;;;;;;;;23.80;95.90;;;;;;6095442;23;20437;-87
2022/05/17 11:51:28;;;;;;;0.88;0.47;;;23.80;91.20;;;;;;6127404;23;19912;-87
2022/05/17 11:53:54;;;;;;;1.70;0.50;;;23.90;94.10;;;;;;6164815;23;20021;-87
2022/05/17 11:56:26;;;;;;;;;;;24.10;93.50;;;;;;6190003;23;20028;-87
2022/05/17 11:58:57;;;;;;;2.28;0.65;;;24.20;90.70;;;;;;6215948;23;19922;-88
2022/05/17 12:01:29;;;;;;;2.83;1.30;;;24.20;92.50;;;;;;6189149;23;20473;-87
2022/05/17 12:04:28;;;;;;;2.15;0.70;;;24.30;92.20;;;;;;6164633;23;20079;-87
2022/05/17 12:06:54;;;;;;;5.55;0.85;;;24.40;90.70;;;;;;6189089;23;20055;-88
2022/05/17 12:09:20;;;;;;;;;;;24.40;91.20;;;;;;6165139;23;20346;-87
2022/05/17 12:11:52;;;;;;;2.83;0.70;;;24.40;86.70;;;;;;6189397;23;19916;-89
2022/05/17 12:14:40;;;;;;;3.13;1.00;;;24.50;90.40;;;;;;6164345;23;20072;-87
2022/05/17 12:17:20;;;;;;;1.75;0.90;;;24.50;85.60;;;;;;6189411;23;20017;-88
2022/05/17 12:20:03;;;;;;;3.10;0.60;;;24.40;87.90;;;;;;6164276;23;20099;-87
2022/05/17 12:22:36;;;;;;;2.30;0.68;;;24.40;87.80;;;;;;6214405;23;20096;-87
2022/05/17 12:25:19;;;;;;;1.90;1.05;;;24.50;87.50;;;;;;6189347;23;20056;-88
2022/05/17 12:27:46;;;;;;;4.38;1.10;;;24.70;86.30;;;;;;6215604;23;20078;-87
2022/05/17 12:33:15;;;;;;;3.53;0.95;;;24.90;83.70;;;;;;6188912;23;20454;-88
2022/05/17 12:35:41;;;;;;;;;;;24.80;85.10;;;;;;6189281;23;20028;-89
2022/05/17 12:43:02;;;;;;;1.50;0.73;;;24.70;80.60;;;;;;6164203;23;19983;-87
2022/05/17 12:43:44;;;;;;;1.90;0.70;;;24.40;85.60;;;;;;6215179;23;20484;-87
2022/05/17 12:46:24;;;;;;;2.92;0.80;;;24.20;84.20;;;;;;6188929;23;20016;-88
2022/05/17 12:48:51;;;;;;;4.82;0.80;;;24.10;83.80;;;;;;6164299;23;20545;-89
2022/05/17 12:51:19;;;;;;;3.10;0.70;;;24.20;84.10;;;;;;6164295;23;20012;-90
2022/05/17 12:53:49;;;;;;;2.30;0.70;;;24.30;83.30;;;;;;6188889;23;20019;-88
2022/05/17 12:56:22;;;;;;;2.70;0.80;;;24.40;83.20;;;;;;6164229;23;20017;-87
2022/05/17 12:58:59;;;;;;;1.95;0.52;;;24.50;82.00;;;;;;6163867;23;20017;-88
2022/05/17 13:01:26;;;;;;;3.67;1.25;;;24.50;81.10;;;;;;6188815;23;20043;-88
2022/05/17 13:03:57;;;;;;;1.33;0.60;;;24.50;81.40;;;;;;6163977;23;20430;-89
2022/05/17 13:06:51;;;;;;;3.13;0.50;;;24.60;80.40;;;;;;6188829;23;20020;-88
2022/05/17 13:09:23;;;;;;;1.25;0.60;;;24.70;79.40;;;;;;6162931;23;20024;-89
2022/05/17 13:11:52;;;;;;;2.25;0.70;;;24.90;78.90;;;;;;6164247;23;20075;-88
2022/05/17 13:14:30;;;;;;;2.30;0.73;;;24.90;78.00;;;;;;6189098;23;20017;-87
2022/05/17 13:17:07;;;;;;;1.75;0.70;;;24.90;77.90;;;;;;6188842;23;20020;-88
2022/05/17 13:19:34;;;;;;;2.53;0.80;;;24.90;77.40;;;;;;6188535;23;20025;-89
2022/05/17 13:22:00;;;;;;;1.60;0.88;;;24.90;77.90;;;;;;6188697;23;20035;-86
2022/05/17 13:24:34;;;;;;;;;;;25.00;77.40;;;;;;6215834;23;20021;-88
2022/05/17 13:27:25;;;;;;;2.97;1.08;;;25.00;75.60;;;;;;6188621;23;20293;-88
2022/05/17 13:29:57;;;;;;;2.30;0.60;;;24.90;74.70;;;;;;6164011;23;20024;-88
2022/05/17 13:32:26;;;;;;;2.65;0.80;;;24.70;76.60;;;;;;6188221;23;20070;-88
2022/05/17 13:35:08;;;;;;;3.90;0.70;;;24.50;77.00;;;;;;6188322;23;20012;-89
2022/05/17 13:37:35;;;;;;;0.98;0.40;;;24.40;76.40;;;;;;6163775;23;20481;-91
2022/05/17 13:40:02;;;;;;;1.73;0.47;;;24.20;77.50;;;;;;6215209;23;20385;-89
2022/05/17 13:42:36;;;;;;;2.80;0.70;;;24.30;77.50;;;;;;6188795;23;20028;-88
2022/05/17 13:45:27;;;;;;;1.70;0.57;;;24.20;77.00;;;;;;6188411;23;20338;-90
2022/05/17 13:47:55;;;;;;;1.63;0.50;;;24.10;76.00;;;;;;6163675;23;20036;-88
2022/05/17 13:50:25;;;;;;;2.80;0.60;;;24.20;76.60;;;;;;6215187;23;20017;-87
2022/05/17 13:52:56;;;;;;;2.15;0.50;;;24.30;75.70;;;;;;6163797;23;20346;-88
2022/05/17 13:55:29;;;;;;;2.78;0.70;;;24.20;75.20;;;;;;6188451;23;20380;-87
2022/05/17 13:57:57;;;;;;;2.97;0.55;;;24.20;75.40;;;;;;6163989;23;20446;-91
2022/05/17 14:00:27;;;;;;;1.75;0.50;;;24.20;75.00;;;;;;6188282;23;20374;-88
2022/05/17 14:03:02;;;;;;;3.25;0.50;;;24.30;74.40;;;;;;6188618;23;20048;-88
2022/05/17 14:05:52;;;;;;;3.22;0.50;;;24.40;75.00;;;;;;6188394;23;20073;-88
2022/05/17 14:14:00;;;;;;;2.13;0.60;;;24.30;75.10;;;;;;6187748;23;20028;-90
2022/05/17 14:16:30;;;;;;;4.03;0.88;;;24.40;74.70;;;;;;6188615;23;20124;-88
2022/05/17 14:18:58;;;;;;;1.88;0.60;;;24.40;73.60;;;;;;6163723;23;20083;-87
2022/05/17 14:21:24;;;;;;;3.80;1.20;;;24.40;73.80;;;;;;6188407;23;20095;-89
2022/05/17 14:23:52;;;;;;;4.10;1.20;;;24.50;74.80;;;;;;6163983;23;20017;-89
2022/05/17 14:26:19;;;;;;;3.08;1.00;;;24.50;76.20;;;;;;6188504;23;20016;-88
2022/05/17 14:28:47;;;;;;;2.78;1.10;;;24.40;77.40;;;;;;6163757;23;20017;-90
2022/05/17 14:31:27;;;;;;;5.72;1.55;;;24.40;78.40;;;;;;6188623;23;20016;-89
2022/05/17 14:33:54;;;;;;;3.67;1.33;;;24.40;78.50;;;;;;6188623;23;20021;-89
2022/05/17 14:36:24;;;;;;;3.42;1.20;;;24.30;78.70;;;;;;6163586;23;20401;-87
2022/05/17 14:38:50;;;;;;;3.67;1.10;;;24.00;79.20;;;;;;6215019;23;20357;-89
2022/05/17 14:41:16;;;;;;;;;;;23.80;79.60;;;;;;6164090;23;20016;-88
2022/05/17 14:43:43;;;;;;;4.15;1.20;;;23.60;80.30;;;;;;6163327;23;19916;-91
2022/05/17 14:46:12;;;;;;;4.10;1.00;;;23.40;81.10;;;;;;6189803;23;20024;-89
2022/05/17 14:48:38;;;;;;;5.72;1.23;;;23.20;81.50;;;;;;6163223;23;20017;-90
2022/05/17 14:51:07;;;;;;;3.75;1.20;;;23.10;81.70;;;;;;6163257;23;20024;-88
2022/05/17 14:53:33;;;;;;;3.30;1.02;;;23.10;82.20;;;;;;6213619;23;20686;-89
2022/05/17 14:55:58;;;;;;;;;;;23.10;82.20;;;;;;6189300;23;20106;-89
2022/05/17 14:58:24;;;;;;;2.33;1.10;;;23.20;82.90;;;;;;6163634;23;19916;-89
2022/05/17 15:00:51;;;;;;;4.32;0.77;;;23.30;82.10;;;;;;6188620;23;20012;-91
2022/05/17 15:03:31;;;;;;;2.08;0.70;;;23.30;81.40;;;;;;6190208;23;20012;-89
2022/05/17 15:05:57;;;;;;;4.10;0.75;;;23.30;80.80;;;;;;6165010;23;20644;-90
2022/05/17 15:08:23;;;;;;;;;;;23.30;80.50;;;;;;6188530;23;20017;-91
2022/05/17 15:10:49;;;;;;;1.88;0.70;;;23.20;79.30;;;;;;6163398;23;19923;-87
2022/05/17 15:13:15;;;;;;;1.42;0.52;;;23.10;80.00;;;;;;6189836;23;20479;-89
2022/05/17 15:15:44;;;;;;;4.60;0.88;;;23.10;79.90;;;;;;6189220;23;20353;-89
2022/05/17 15:18:14;;;;;;;3.20;0.85;;;23.10;79.80;;;;;;6162956;23;20020;-90
2022/05/17 15:27:07;;;;;;;2.25;0.60;;;23.10;80.00;;;;;;6214999;23;20358;-89
2022/05/17 15:29:33;;;;;;;;;;;23.10;79.90;;;;;;6165188;23;20021;-87
2022/05/17 15:32:01;;;;;;;1.55;0.60;;;23.00;80.70;;;;;;6189917;23;20358;-90
2022/05/17 15:34:29;;;;;;;3.00;0.75;;;22.90;79.40;;;;;;6190258;23;20013;-89
2022/05/17 15:54:15;;;;;;;2.47;0.90;;;22.40;80.60;;;;;;6189583;23;20104;-89
2022/05/17 16:09:50;;;;;;;2.95;0.73;;;22.10;81.50;;;;;;6160879;23;20104;-94
2022/05/17 16:12:16;;;;;;;2.50;0.70;;;22.10;80.90;;;;;;6160867;23;20028;-94
2022/05/17 16:14:42;;;;;;;5.55;1.63;;;22.10;81.50;;;;;;6136699;23;20045;-95
2022/05/17 16:17:08;;;;;;;2.05;0.68;;;22.00;81.60;;;;;;6169527;23;20100;-89
2022/05/17 16:19:40;;;;;;;3.17;0.80;;;21.90;81.90;;;;;;6182138;23;20386;-92